Time;durP1;ratioP1;P1;durP2;ratioP2;P2;SDS_P1;SDS_P2;PMS_P1;PMS_P2;Temp;Humidity;BMP_temperature;BMP_pressure;BME280_temperature;BME280_humidity;BME280_pressure;Samples;Min_cycle;Max_cycle;Signal;HPM_P1;HPM_P2
2022/06/18 05:00:28;;;;;;;12.80;3.25;;;;;;;21.15;58.36;101795.09;5051759;27;96799;-35
2022/06/18 05:02:53;;;;;;;8.23;2.80;;;;;;;21.15;58.89;101784.06;5057792;27;96737;-34
2022/06/18 05:05:22;;;;;;;9.55;2.83;;;;;;;21.17;58.76;101783.94;5056632;27;111349;-35
2022/06/18 05:07:47;;;;;;;8.70;2.72;;;;;;;21.19;58.17;101779.16;5059236;27;101229;-35
2022/06/18 05:10:13;;;;;;;7.38;2.85;;;;;;;21.27;58.49;101787.59;5060961;27;96645;-35
2022/06/18 05:12:39;;;;;;;4.60;2.47;;;;;;;21.28;58.37;101788.44;5061230;27;96837;-35
2022/06/18 05:15:07;;;;;;;6.03;2.22;;;;;;;21.29;58.43;101779.19;5058609;27;101093;-34
2022/06/18 05:17:34;;;;;;;6.75;2.42;;;;;;;21.34;58.35;101791.50;5060441;27;99558;-34
2022/06/18 05:20:00;;;;;;;5.00;2.78;;;;;;;21.38;58.17;101795.75;5059749;27;96519;-34
2022/06/18 05:22:27;;;;;;;7.43;2.75;;;;;;;21.39;58.56;101785.56;5060845;27;96865;-35
2022/06/18 05:24:53;;;;;;;5.35;2.63;;;;;;;21.43;58.32;101781.56;5058669;27;100780;-34
2022/06/18 05:27:28;;;;;;;10.18;2.67;;;;;;;21.42;59.66;101768.78;5060523;27;97263;-35
2022/06/18 05:29:55;;;;;;;10.60;2.47;;;;;;;21.45;58.36;101771.25;5059541;27;96612;-34
2022/06/18 05:32:20;;;;;;;8.65;3.38;;;;;;;21.48;58.74;101765.47;5059464;27;96897;-34
2022/06/18 05:34:45;;;;;;;9.48;2.90;;;;;;;21.55;57.93;101766.63;5060511;27;97952;-34
2022/06/18 05:37:17;;;;;;;11.30;3.22;;;;;;;21.61;58.45;101770.69;5060145;27;97749;-35
2022/06/18 05:39:43;;;;;;;7.45;2.88;;;;;;;21.61;58.14;101760.53;5058799;27;96628;-34
2022/06/18 05:42:08;;;;;;;6.53;3.10;;;;;;;21.63;57.97;101772.28;5059413;27;97065;-34
2022/06/18 05:44:34;;;;;;;7.25;3.17;;;;;;;21.66;57.71;101775.78;5060024;27;99601;-34
2022/06/18 05:47:00;;;;;;;7.05;2.53;;;;;;;21.72;58.71;101775.22;5058588;27;100531;-35
2022/06/18 05:49:26;;;;;;;14.55;3.58;;;;;;;21.77;58.20;101779.25;5060730;27;96452;-34
2022/06/18 05:51:51;;;;;;;8.65;3.55;;;;;;;21.80;58.38;101778.97;5060254;27;96923;-35
2022/06/18 05:54:17;;;;;;;7.45;3.47;;;;;;;21.88;58.27;101782.88;5060097;27;97907;-34
2022/06/18 05:56:42;;;;;;;9.15;3.15;;;;;;;21.96;58.29;101783.91;5060034;27;99274;-34
2022/06/18 05:59:11;;;;;;;7.80;3.33;;;;;;;21.95;59.30;101762.88;5060964;27;96680;-34
2022/06/18 06:01:36;;;;;;;8.60;2.97;;;;;;;22.02;57.98;101771.41;5058251;27;97003;-34
2022/06/18 06:04:02;;;;;;;8.43;2.95;;;;;;;22.05;58.17;101766.47;5059619;27;97344;-34
2022/06/18 06:06:27;;;;;;;12.40;2.83;;;;;;;22.11;58.52;101780.69;5059527;27;99146;-34
2022/06/18 06:08:52;;;;;;;5.95;3.20;;;;;;;22.20;58.29;101779.81;5060308;27;96531;-34
2022/06/18 06:11:29;;;;;;;13.65;3.45;;;;;;;22.28;58.42;101782.72;5060502;27;96526;-34
2022/06/18 06:13:57;;;;;;;9.82;2.85;;;;;;;22.31;58.42;101779.69;5058298;27;101158;-34
2022/06/18 06:16:23;;;;;;;8.15;3.47;;;;;;;22.33;58.65;101785.03;5058159;27;99077;-34
2022/06/18 06:18:49;;;;;;;8.45;2.92;;;;;;;22.42;58.58;101792.44;5059165;27;96586;-34
2022/06/18 06:21:14;;;;;;;9.88;3.33;;;;;;;22.47;58.41;101785.44;5059030;27;96833;-35
2022/06/18 06:23:40;;;;;;;7.03;3.10;;;;;;;22.54;58.00;101782.09;5059468;27;99234;-34
2022/06/18 06:26:16;;;;;;;8.70;3.03;;;;;;;22.67;58.62;101791.78;5059670;27;97740;-34
2022/06/18 06:28:43;;;;;;;6.65;3.40;;;;;;;22.74;57.47;101796.69;5058103;27;96564;-34
2022/06/18 06:31:08;;;;;;;12.93;3.30;;;;;;;22.75;57.64;101807.59;5058531;27;96908;-35
2022/06/18 06:33:33;;;;;;;7.80;3.25;;;;;;;22.68;58.40;101790.75;5058706;27;106565;-34
2022/06/18 06:35:59;;;;;;;11.85;3.17;;;;;;;22.74;57.90;101791.16;5059235;27;101359;-34
2022/06/18 06:38:24;;;;;;;7.07;3.45;;;;;;;22.79;57.58;101802.66;5060091;27;96697;-35
2022/06/18 06:40:50;;;;;;;8.38;3.35;;;;;;;22.88;58.08;101813.69;5063916;27;96787;-34
2022/06/18 06:43:17;;;;;;;7.63;3.45;;;;;;;22.88;58.32;101812.78;5076808;27;100816;-35
2022/06/18 06:45:43;;;;;;;13.40;3.72;;;;;;;22.96;57.91;101804.63;5079549;27;99747;-34
2022/06/18 06:48:09;;;;;;;7.05;3.28;;;;;;;23.07;57.50;101809.09;5076874;27;96819;-34
2022/06/18 06:50:35;;;;;;;8.20;3.60;;;;;;;23.14;56.82;101807.47;5074534;27;96865;-36
2022/06/18 06:53:00;;;;;;;9.80;3.50;;;;;;;23.27;57.13;101807.13;5079270;27;97562;-34
2022/06/18 06:58:16;;;;;;;6.95;3.13;;;;;;;23.31;56.79;101814.97;5080088;27;96437;-35
2022/06/18 07:00:48;;;;;;;10.35;4.05;;;;;;;23.42;57.76;101815.75;5076753;27;96905;-34
2022/06/18 07:03:14;;;;;;;;;;;;;;;23.50;57.38;101813.06;5078533;27;101162;-34
2022/06/18 07:05:40;;;;;;;6.15;3.15;;;;;;;23.51;56.02;101809.31;5079604;27;97328;-35
2022/06/18 07:08:06;;;;;;;11.18;3.40;;;;;;;23.66;56.48;101812.41;5079646;27;96494;-34
2022/06/18 07:10:32;;;;;;;10.68;3.08;;;;;;;23.71;56.65;101810.88;5078715;27;96807;-35
2022/06/18 07:12:57;;;;;;;8.65;3.63;;;;;;;23.74;56.91;101810.63;5077570;27;100724;-35
2022/06/18 07:15:23;;;;;;;8.88;3.78;;;;;;;23.89;56.58;101808.19;5077560;27;97193;-35
2022/06/18 07:17:48;;;;;;;9.35;3.60;;;;;;;23.93;56.18;101815.13;5060858;27;96708;-35
2022/06/18 07:20:16;;;;;;;8.48;3.30;;;;;;;24.02;55.92;101817.97;5079689;27;96819;-34
2022/06/18 07:22:42;;;;;;;13.50;4.00;;;;;;;24.12;56.19;101813.22;5077533;27;100949;-34
2022/06/18 07:25:11;;;;;;;11.20;3.40;;;;;;;24.23;56.75;101820.41;5078930;27;98788;-35
2022/06/18 07:27:36;;;;;;;12.50;3.65;;;;;;;24.28;55.72;101818.03;5078024;27;96828;-35
2022/06/18 07:30:05;;;;;;;9.77;3.80;;;;;;;24.35;55.57;101817.22;5078041;27;96823;-35
2022/06/18 07:32:31;;;;;;;7.07;3.83;;;;;;;24.41;56.48;101818.50;5077275;27;100774;-35
2022/06/18 07:34:56;;;;;;;10.20;3.17;;;;;;;24.40;55.56;101816.72;5077697;27;100922;-34
2022/06/18 07:37:22;;;;;;;8.18;3.45;;;;;;;24.42;55.42;101819.34;5079090;27;96761;-34
2022/06/18 07:39:48;;;;;;;21.88;4.07;;;;;;;24.42;55.71;101814.66;5077839;27;96799;-35
2022/06/18 07:42:17;;;;;;;7.88;3.65;;;;;;;24.50;54.78;101808.34;5077870;27;99459;-35
2022/06/18 07:44:42;;;;;;;11.35;4.22;;;;;;;24.59;55.26;101813.78;5077140;27;100923;-35
2022/06/18 07:47:19;;;;;;;11.43;4.10;;;;;;;24.70;55.64;101817.34;5079023;27;96678;-34
2022/06/18 07:49:45;;;;;;;11.98;4.00;;;;;;;24.83;54.51;101819.66;5077885;27;96897;-35
2022/06/18 07:52:13;;;;;;;10.32;3.80;;;;;;;24.88;54.52;101804.25;5078551;27;97935;-34
2022/06/18 07:54:39;;;;;;;12.20;4.93;;;;;;;25.06;54.13;101814.41;5078385;27;97876;-35
2022/06/18 07:57:05;;;;;;;9.05;3.95;;;;;;;25.13;53.50;101821.03;5077405;27;96620;-35
2022/06/18 07:59:31;;;;;;;14.13;3.72;;;;;;;25.12;53.71;101809.06;5079529;27;96747;-34
2022/06/18 08:01:56;;;;;;;9.35;3.58;;;;;;;25.11;53.37;101810.09;5077913;27;97973;-35
2022/06/18 08:04:21;;;;;;;12.63;3.75;;;;;;;25.21;53.65;101819.16;5078183;27;100544;-34
2022/06/18 08:06:47;;;;;;;9.20;3.58;;;;;;;25.18;53.55;101813.09;5078837;27;96523;-34
2022/06/18 08:09:12;;;;;;;11.68;4.22;;;;;;;25.31;53.19;101815.41;5077161;27;96793;-35
2022/06/18 08:11:39;;;;;;;14.13;3.90;;;;;;;25.39;52.89;101812.66;5078219;27;99308;-35
2022/06/18 08:14:05;;;;;;;12.30;4.65;;;;;;;25.58;52.48;101825.38;5078233;27;97805;-35
2022/06/18 08:16:31;;;;;;;11.43;4.55;;;;;;;25.70;52.23;101821.25;5077120;27;96619;-35
2022/06/18 08:18:56;;;;;;;12.15;3.65;;;;;;;25.74;52.80;101806.00;5078890;27;96788;-34
2022/06/18 08:21:30;;;;;;;9.60;3.58;;;;;;;25.85;52.02;101808.44;5078306;27;97403;-34
2022/06/18 08:24:01;;;;;;;9.85;3.78;;;;;;;26.02;51.67;101817.66;5077188;27;101019;-35
2022/06/18 08:26:27;;;;;;;12.95;4.07;;;;;;;26.10;51.72;101811.28;5077181;27;96636;-35
2022/06/18 08:28:53;;;;;;;9.82;4.30;;;;;;;26.23;51.50;101822.72;5078786;27;96713;-35
2022/06/18 08:31:18;;;;;;;14.35;4.18;;;;;;;26.25;50.81;101803.97;5076158;27;101097;-35
2022/06/18 08:33:44;;;;;;;13.57;4.00;;;;;;;26.34;51.03;101799.28;5077841;27;97486;-35
2022/06/18 08:36:14;;;;;;;10.13;3.70;;;;;;;26.55;50.40;101803.44;5078423;27;96600;-35
2022/06/18 08:38:42;;;;;;;8.35;3.67;;;;;;;26.63;49.53;101795.97;5077063;27;96712;-35
2022/06/18 08:41:32;;;;;;;7.03;3.72;;;;;;;26.81;50.11;101806.84;5075538;27;101052;-35
2022/06/18 08:44:19;;;;;;;17.75;3.85;;;;;;;26.94;49.75;101802.66;5077623;27;99449;-35
2022/06/18 08:47:15;;;;;;;9.00;4.00;;;;;;;26.97;48.19;101799.53;5076689;27;96723;-35
2022/06/18 08:50:14;;;;;;;10.85;4.03;;;;;;;27.12;48.62;101789.38;5077376;27;96792;-35
2022/06/18 08:52:51;;;;;;;11.98;4.22;;;;;;;27.17;48.90;101788.81;5077789;27;98478;-35
2022/06/18 08:55:42;;;;;;;7.20;3.28;;;;;;;27.22;49.11;101786.38;5076255;27;100782;-35
2022/06/18 08:58:24;;;;;;;9.65;3.65;;;;;;;27.29;48.03;101785.50;5077891;27;96494;-35
2022/06/18 09:00:49;;;;;;;9.88;3.78;;;;;;;27.39;48.14;101781.59;5077895;27;96606;-35
2022/06/18 09:03:42;;;;;;;9.38;3.78;;;;;;;27.41;48.11;101782.28;5077782;27;97876;-35
2022/06/18 09:06:49;;;;;;;9.90;3.53;;;;;;;27.53;48.24;101770.59;5077888;27;97818;-35
2022/06/18 09:09:38;;;;;;;10.98;3.90;;;;;;;27.69;47.64;101772.38;5077941;27;96564;-35
2022/06/18 09:12:22;;;;;;;8.07;3.28;;;;;;;27.68;46.41;101769.78;5078116;27;96558;-35
2022/06/18 09:15:02;;;;;;;10.13;2.80;;;;;;;27.64;46.98;101780.41;5076040;27;100833;-35
2022/06/18 09:17:37;;;;;;;7.70;3.60;;;;;;;27.76;46.64;101772.50;5076464;27;100365;-35
2022/06/18 09:20:12;;;;;;;11.88;3.08;;;;;;;27.98;47.33;101779.16;5076457;27;96763;-35
2022/06/18 09:22:50;;;;;;;14.00;6.32;;;;;;;28.09;46.54;101784.28;5077919;27;96515;-35
2022/06/18 09:25:18;;;;;;;10.90;2.92;;;;;;;28.21;46.75;101787.50;5075414;27;101007;-35
2022/06/18 09:27:55;;;;;;;11.38;3.35;;;;;;;28.29;45.91;101780.97;5075878;27;101144;-35
2022/06/18 09:30:39;;;;;;;11.32;3.00;;;;;;;28.45;45.23;101777.16;5076241;27;96592;-35
2022/06/18 09:33:22;;;;;;;12.52;3.38;;;;;;;28.50;45.86;101769.13;5077393;27;96758;-35
2022/06/18 09:35:57;;;;;;;15.57;3.47;;;;;;;28.68;45.56;101771.56;5075661;27;101130;-35
2022/06/18 09:38:37;;;;;;;9.82;3.25;;;;;;;28.76;44.66;101772.31;5075937;27;100819;-35
2022/06/18 09:41:22;;;;;;;6.82;3.58;;;;;;;28.80;44.96;101773.66;5059491;27;96763;-35
2022/06/18 09:44:10;;;;;;;14.80;3.50;;;;;;;28.91;44.13;101783.50;5056275;27;96765;-35
2022/06/18 09:46:43;;;;;;;5.95;3.45;;;;;;;29.03;44.34;101783.84;5059098;27;101028;-36
2022/06/18 09:49:09;;;;;;;17.73;4.10;;;;;;;29.02;44.45;101765.38;5076884;27;97870;-35
2022/06/18 09:51:49;;;;;;;11.48;4.13;;;;;;;28.98;44.18;101770.50;5061419;27;97268;-35
2022/06/18 09:54:17;;;;;;;13.32;4.50;;;;;;;29.12;44.25;101777.13;5057895;27;96825;-35
2022/06/18 09:56:49;;;;;;;16.10;3.90;;;;;;;29.17;44.34;101774.63;5072281;27;101134;-35
2022/06/18 09:59:23;;;;;;;13.68;4.82;;;;;;;29.11;44.96;101771.75;5080643;27;97313;-35
2022/06/18 10:01:55;;;;;;;12.18;4.47;;;;;;;29.17;44.79;101774.63;5080485;27;96726;-35
2022/06/18 10:07:24;;;;;;;10.77;4.47;;;;;;;29.26;43.87;101761.44;5060132;27;97092;-35
2022/06/18 10:09:54;;;;;;;15.95;4.95;;;;;;;29.21;44.87;101756.44;5058688;27;100750;-35
2022/06/18 10:12:24;;;;;;;15.55;5.45;;;;;;;29.29;44.88;101768.53;5058542;27;96722;-35
2022/06/18 10:14:56;;;;;;;19.27;6.18;;;;;;;29.31;43.96;101758.03;5058250;27;96907;-35
2022/06/18 10:17:46;;;;;;;20.73;6.25;;;;;;;29.38;44.24;101761.78;5056892;27;101031;-35
2022/06/18 10:20:49;;;;;;;17.83;5.80;;;;;;;29.43;44.52;101762.91;5058398;27;100519;-35
2022/06/18 10:23:36;;;;;;;15.30;5.53;;;;;;;29.50;44.57;101753.75;5060109;27;96520;-35
2022/06/18 10:26:28;;;;;;;15.60;5.90;;;;;;;29.58;43.79;101759.19;5058525;27;96826;-35
2022/06/18 10:29:03;;;;;;;24.75;7.10;;;;;;;29.61;43.58;101753.25;5057723;27;101361;-35
2022/06/18 10:31:42;;;;;;;31.95;6.90;;;;;;;29.62;44.13;101746.59;5057985;27;100891;-35
2022/06/18 10:34:28;;;;;;;41.65;7.72;;;;;;;29.69;43.94;101743.91;5058296;27;96730;-32
2022/06/18 10:37:30;;;;;;;18.75;5.35;;;;;;;29.74;43.99;101747.81;5058870;27;96752;-32
2022/06/18 10:40:14;;;;;;;13.02;5.05;;;;;;;29.77;43.53;101744.66;5059668;27;97330;-32
2022/06/18 10:42:42;;;;;;;13.82;5.00;;;;;;;29.95;43.13;101743.28;5057533;27;100741;-32
2022/06/18 10:45:16;;;;;;;10.48;4.75;;;;;;;29.98;42.79;101746.53;5059149;27;96608;-34
2022/06/18 10:47:46;;;;;;;11.55;5.20;;;;;;;30.00;42.56;101732.38;5059692;27;96951;-32
2022/06/18 10:50:16;;;;;;;19.65;4.82;;;;;;;29.90;43.08;101727.13;5059126;27;99243;-34
2022/06/18 10:52:43;;;;;;;12.32;5.05;;;;;;;29.97;43.03;101724.41;5059147;27;99272;-33
2022/06/18 10:55:20;;;;;;;21.70;8.90;;;;;;;30.10;42.80;101730.09;5057817;27;96603;-32
2022/06/18 10:57:48;;;;;;;11.30;4.93;;;;;;;30.07;42.26;101722.13;5059323;27;96724;-32
2022/06/18 11:00:25;;;;;;;19.48;5.57;;;;;;;30.24;42.81;101731.91;5058467;27;98896;-34
2022/06/18 11:03:01;;;;;;;16.30;5.82;;;;;;;30.30;42.41;101729.44;5057702;27;101147;-32
2022/06/18 11:05:30;;;;;;;14.73;5.00;;;;;;;30.31;43.04;101731.16;5057506;27;96461;-32
2022/06/18 11:08:00;;;;;;;10.23;5.45;;;;;;;30.26;42.11;101735.41;5059276;27;96664;-32
2022/06/18 11:10:43;;;;;;;13.45;5.68;;;;;;;30.36;42.46;101726.66;5056876;27;100960;-33
2022/06/18 11:13:27;;;;;;;12.52;4.85;;;;;;;30.31;41.18;101720.81;5057413;27;100723;-34
2022/06/18 11:16:14;;;;;;;13.63;5.07;;;;;;;30.20;40.53;101724.13;5059383;27;96570;-35
2022/06/18 11:18:44;;;;;;;18.55;7.13;;;;;;;30.25;42.18;101722.53;5057296;27;96749;-35
2022/06/18 11:21:14;;;;;;;19.85;5.43;;;;;;;30.21;41.11;101715.56;5057184;27;100978;-35
2022/06/18 11:23:50;;;;;;;17.37;5.73;;;;;;;29.98;42.06;101714.94;5057027;27;101182;-34
2022/06/18 11:26:22;;;;;;;19.70;5.60;;;;;;;30.10;41.93;101707.72;5055013;27;96664;-34
2022/06/18 11:28:49;;;;;;;14.65;5.13;;;;;;;30.15;42.54;101695.94;5055372;27;96781;-34
2022/06/18 11:31:26;;;;;;;21.55;6.00;;;;;;;30.27;41.42;101705.53;5054490;27;100749;-34
2022/06/18 11:33:59;;;;;;;14.40;6.90;;;;;;;30.29;42.16;101694.16;5054306;27;101068;-35
2022/06/18 11:36:35;;;;;;;13.90;5.68;;;;;;;30.32;42.12;101697.41;5054240;27;96597;-35
2022/06/18 11:39:02;;;;;;;20.77;6.18;;;;;;;30.27;42.45;101680.38;5054653;27;96845;-35
2022/06/18 11:41:44;;;;;;;22.77;6.38;;;;;;;30.33;42.52;101692.69;5055462;27;97940;-32
2022/06/18 11:44:12;;;;;;;16.27;5.75;;;;;;;30.27;42.22;101692.44;5055913;27;97347;-33
2022/06/18 11:46:50;;;;;;;15.27;5.53;;;;;;;30.06;42.41;101696.09;5055850;27;96508;-33
2022/06/18 11:49:37;;;;;;;16.75;6.30;;;;;;;30.14;42.13;101699.81;5055984;27;96751;-33
2022/06/18 11:52:02;;;;;;;15.40;6.35;;;;;;;30.16;42.22;101683.72;5054179;27;101096;-33
2022/06/18 11:54:37;;;;;;;13.52;5.72;;;;;;;30.30;42.10;101684.72;5055500;27;97414;-33
2022/06/18 11:57:16;;;;;;;22.63;5.82;;;;;;;30.32;41.28;101675.03;5055639;27;96697;-34
2022/06/18 11:59:52;;;;;;;17.00;5.10;;;;;;;30.44;41.94;101692.97;5055482;27;96693;-33
2022/06/18 12:02:26;;;;;;;11.70;5.32;;;;;;;30.49;42.01;101689.56;5053245;27;99604;-33
2022/06/18 12:04:58;;;;;;;19.40;6.97;;;;;;;30.55;41.87;101679.47;5053838;27;99569;-33
2022/06/18 12:07:36;;;;;;;16.15;5.63;;;;;;;30.60;41.83;101677.75;5055747;27;96491;-33
2022/06/18 12:10:16;;;;;;;20.80;5.43;;;;;;;30.61;41.51;101675.84;5054456;27;96780;-33
2022/06/18 12:13:11;;;;;;;12.47;5.03;;;;;;;30.66;41.07;101676.94;5055236;27;97233;-34
2022/06/18 12:15:45;;;;;;;20.92;6.90;;;;;;;30.55;41.75;101682.25;5054300;27;97893;-33
2022/06/18 12:18:42;;;;;;;14.50;6.25;;;;;;;30.62;41.36;101677.56;5053837;27;96666;-33
2022/06/18 12:21:16;;;;;;;12.25;5.18;;;;;;;30.74;41.07;101673.09;5056157;27;96665;-33
2022/06/18 12:24:01;;;;;;;21.13;6.18;;;;;;;30.65;41.39;101666.84;5053803;27;100710;-33
2022/06/18 12:26:35;;;;;;;16.67;5.47;;;;;;;30.66;41.79;101662.09;5053859;27;101212;-33
2022/06/18 12:29:40;;;;;;;15.95;5.97;;;;;;;30.73;41.81;101663.00;5053671;27;96736;-33
2022/06/18 12:32:41;;;;;;;16.08;5.22;;;;;;;30.69;41.25;101659.75;5042473;27;96871;-33
2022/06/18 12:35:57;;;;;;;17.37;5.77;;;;;;;30.70;41.44;101660.59;5055365;27;97888;-33
2022/06/18 12:39:14;;;;;;;23.23;5.60;;;;;;;30.71;41.72;101648.34;5012387;28;96978;-33
2022/06/18 12:41:54;;;;;;;16.88;5.40;;;;;;;30.80;41.34;101640.66;5035621;27;96883;-33
2022/06/18 12:44:35;;;;;;;13.30;4.65;;;;;;;30.67;41.49;101642.31;5053554;27;96914;-33
2022/06/18 12:47:20;;;;;;;15.20;5.60;;;;;;;30.65;40.71;101638.00;5053398;27;100807;-33
2022/06/18 12:50:18;;;;;;;11.60;5.68;;;;;;;30.78;41.99;101638.06;5055148;27;99319;-33
2022/06/18 12:53:08;;;;;;;23.48;5.57;;;;;;;30.74;41.64;101638.69;5053379;27;96664;-33
2022/06/18 12:55:45;;;;;;;12.75;5.32;;;;;;;30.56;41.76;101644.81;5053612;27;97147;-33
2022/06/18 12:58:25;;;;;;;21.33;5.57;;;;;;;30.58;41.77;101634.31;5052791;27;101494;-33
2022/06/18 13:00:59;;;;;;;14.52;5.18;;;;;;;30.69;42.10;101639.31;5052261;27;100978;-33
2022/06/18 13:03:45;;;;;;;10.70;4.80;;;;;;;30.61;42.09;101637.56;5054949;27;96546;-33
2022/06/18 13:06:33;;;;;;;9.90;4.82;;;;;;;30.67;42.03;101644.25;5055233;27;96469;-33
2022/06/18 13:09:17;;;;;;;15.73;5.25;;;;;;;30.60;41.95;101648.94;5053254;27;100926;-33
2022/06/18 13:11:51;;;;;;;14.43;4.75;;;;;;;30.59;42.16;101652.81;5054766;27;97367;-33
2022/06/18 13:14:19;;;;;;;12.40;5.05;;;;;;;30.61;42.09;101651.53;5053558;27;96550;-33
2022/06/18 13:16:56;;;;;;;8.43;4.78;;;;;;;30.56;41.92;101648.50;5055031;27;96576;-33
2022/06/18 13:19:35;;;;;;;18.08;4.93;;;;;;;30.63;41.99;101643.81;5054446;27;97913;-33
2022/06/18 13:22:01;;;;;;;13.10;4.97;;;;;;;30.77;42.13;101641.06;5054477;27;99702;-33
2022/06/18 13:30:17;;;;;;;11.00;4.03;;;;;;;30.52;43.22;101632.34;5058037;27;97109;-33
2022/06/18 13:32:48;;;;;;;10.60;4.13;;;;;;;30.50;43.33;101635.34;5056163;27;101071;-33
2022/06/18 13:35:36;;;;;;;10.80;4.68;;;;;;;30.48;43.52;101632.75;5058398;27;96596;-33
2022/06/18 13:38:30;;;;;;;9.27;3.80;;;;;;;30.43;43.83;101632.50;5056582;27;96707;-33
2022/06/18 13:41:09;;;;;;;11.05;4.07;;;;;;;30.37;43.85;101632.50;5056378;27;101507;-33
2022/06/18 13:44:12;;;;;;;11.48;3.47;;;;;;;30.49;43.59;101636.44;5058289;27;97868;-33
2022/06/18 13:46:47;;;;;;;9.50;3.78;;;;;;;30.27;43.71;101646.81;5058106;27;96642;-33
2022/06/18 13:49:23;;;;;;;8.65;3.20;;;;;;;30.08;43.88;101644.72;5057923;27;96810;-33
2022/06/18 13:52:01;;;;;;;6.75;2.83;;;;;;;29.96;43.83;101644.41;5055776;27;100919;-33
2022/06/18 13:54:39;;;;;;;8.18;2.50;;;;;;;29.98;43.97;101645.94;5056186;27;100594;-33
2022/06/18 13:57:07;;;;;;;6.88;2.95;;;;;;;29.93;44.29;101642.91;5056214;27;96667;-34
2022/06/18 13:59:34;;;;;;;5.78;2.70;;;;;;;29.80;44.21;101637.22;5056331;27;96874;-33
2022/06/18 14:02:08;;;;;;;14.00;3.05;;;;;;;29.62;43.88;101630.16;5055604;27;101090;-33
2022/06/18 14:04:36;;;;;;;9.88;3.10;;;;;;;29.50;44.45;101642.94;5055941;27;100768;-33
2022/06/18 14:07:08;;;;;;;7.85;2.63;;;;;;;29.46;44.46;101626.78;5056275;27;96713;-33
2022/06/18 14:09:54;;;;;;;7.25;2.75;;;;;;;29.40;44.89;101640.47;5057634;27;96674;-33
2022/06/18 14:12:29;;;;;;;5.80;3.00;;;;;;;29.13;44.94;101636.56;5057544;27;97571;-33
2022/06/18 14:15:24;;;;;;;10.52;2.95;;;;;;;29.13;45.28;101638.50;5057437;27;97914;-33
2022/06/18 14:17:57;;;;;;;14.35;4.32;;;;;;;29.24;44.80;101643.53;5055444;27;96690;-34
2022/06/18 14:20:28;;;;;;;14.23;3.50;;;;;;;29.17;45.46;101646.25;5056016;27;96795;-33
2022/06/18 14:23:13;;;;;;;7.70;3.00;;;;;;;28.99;45.58;101620.72;5057110;27;97985;-33
2022/06/18 14:25:45;;;;;;;8.27;2.97;;;;;;;28.99;45.36;101632.72;5057197;27;97851;-33
2022/06/18 14:28:26;;;;;;;7.18;2.38;;;;;;;28.87;46.02;101620.34;5055947;27;96774;-33
2022/06/18 14:31:00;;;;;;;10.02;3.35;;;;;;;28.73;45.70;101616.53;5055921;27;96797;-33
2022/06/18 14:33:49;;;;;;;5.30;2.88;;;;;;;28.74;46.53;101618.25;5055316;27;99480;-33
2022/06/18 14:36:18;;;;;;;9.50;3.00;;;;;;;28.75;46.19;101620.00;5055792;27;101030;-33
2022/06/18 14:38:47;;;;;;;8.30;2.72;;;;;;;28.74;46.22;101607.09;5056261;27;97345;-33
2022/06/18 14:44:03;;;;;;;17.05;4.45;;;;;;;28.77;46.52;101603.94;5056871;27;97159;-33
2022/06/18 14:46:56;;;;;;;;;;;;;;;28.73;46.75;101596.16;5057114;27;98348;-33
2022/06/18 14:49:38;;;;;;;6.38;2.67;;;;;;;28.61;46.61;101583.78;5057038;27;97687;-33
2022/06/18 14:52:19;;;;;;;8.57;3.53;;;;;;;28.66;47.21;101582.13;5055572;27;96672;-33
2022/06/18 14:55:12;;;;;;;10.60;3.37;;;;;;;28.66;47.02;101572.91;5056711;27;97995;-33
2022/06/18 14:58:02;;;;;;;9.32;3.45;;;;;;;28.69;46.90;101555.78;5056347;27;97819;-33
2022/06/18 15:00:33;;;;;;;13.57;4.35;;;;;;;28.78;47.72;101552.66;5056719;27;96944;-33
2022/06/18 15:03:07;;;;;;;11.38;4.32;;;;;;;28.78;46.97;101552.66;5055938;27;96783;-33
2022/06/18 15:05:38;;;;;;;11.57;3.92;;;;;;;28.80;46.77;101538.53;5055032;27;100489;-33
2022/06/18 15:08:16;;;;;;;9.15;3.50;;;;;;;28.77;48.15;101525.84;5054689;27;100952;-33
2022/06/18 15:10:45;;;;;;;10.10;3.40;;;;;;;28.79;47.85;101518.16;5054746;27;96774;-33
2022/06/18 15:13:11;;;;;;;9.20;3.67;;;;;;;28.70;47.74;101501.72;5055076;27;96893;-33
2022/06/18 15:18:45;;;;;;;7.35;3.50;;;;;;;28.44;48.56;101486.41;5056008;27;98065;-34
2022/06/18 15:21:31;;;;;;;15.20;4.15;;;;;;;28.35;49.37;101493.16;5056348;27;96501;-33
2022/06/18 15:24:06;;;;;;;9.95;3.83;;;;;;;28.24;49.48;101496.44;5056298;27;96647;-33
2022/06/18 15:26:34;;;;;;;9.13;3.97;;;;;;;28.23;48.91;101490.03;5054654;27;100442;-33
2022/06/18 15:29:13;;;;;;;5.85;3.47;;;;;;;28.22;49.72;101501.34;5054589;27;101069;-34
2022/06/18 15:31:40;;;;;;;11.07;3.90;;;;;;;28.10;49.29;101495.41;5054810;27;96745;-33
2022/06/18 15:34:28;;;;;;;8.32;3.55;;;;;;;27.98;50.05;101499.75;5054512;27;96957;-33
2022/06/18 15:37:06;;;;;;;9.43;3.83;;;;;;;28.00;49.88;101490.13;5054052;27;100817;-33
2022/06/18 15:39:34;;;;;;;11.35;3.90;;;;;;;27.94;49.60;101479.78;5054616;27;100852;-33
2022/06/18 15:42:00;;;;;;;17.10;4.80;;;;;;;28.02;49.44;101479.66;5054497;27;96936;-33
2022/06/18 15:44:29;;;;;;;14.52;5.75;;;;;;;28.04;49.03;101476.69;5054722;27;96838;-33
2022/06/18 15:46:59;;;;;;;12.05;5.32;;;;;;;28.15;49.26;101495.69;5054388;27;100984;-33
2022/06/18 15:49:32;;;;;;;16.10;8.40;;;;;;;28.23;49.20;101500.31;5053112;27;100927;-33
2022/06/18 15:51:58;;;;;;;11.00;5.55;;;;;;;28.19;49.27;101507.31;5054378;27;96659;-33
2022/06/18 15:54:35;;;;;;;10.43;4.78;;;;;;;28.20;49.02;101496.00;5054774;27;96873;-33
2022/06/18 15:57:18;;;;;;;14.07;4.78;;;;;;;28.24;49.03;101494.53;5055492;27;99517;-33
2022/06/18 15:59:49;;;;;;;8.32;3.88;;;;;;;28.17;48.67;101500.03;5055522;27;98754;-33
2022/06/18 16:02:15;;;;;;;6.65;3.35;;;;;;;28.03;49.24;101486.09;5053489;27;96903;-33
2022/06/18 16:04:42;;;;;;;15.35;4.15;;;;;;;28.02;48.96;101501.09;5054275;27;97827;-33
2022/06/18 16:07:10;;;;;;;7.20;3.67;;;;;;;27.89;49.69;101508.22;5053605;27;101456;-34
2022/06/18 16:09:49;;;;;;;12.73;2.92;;;;;;;27.75;49.58;101503.47;5053071;27;101064;-33
2022/06/18 16:12:38;;;;;;;6.13;2.90;;;;;;;27.73;49.35;101508.38;5053917;27;96949;-34
2022/06/18 16:15:28;;;;;;;7.95;3.08;;;;;;;27.77;50.16;101500.47;5053612;27;97217;-33
2022/06/18 16:17:54;;;;;;;8.43;3.17;;;;;;;27.80;49.62;101497.34;5054321;27;97907;-33
2022/06/18 16:20:23;;;;;;;9.70;3.30;;;;;;;27.87;49.73;101492.75;5055603;27;97266;-33
2022/06/18 16:23:02;;;;;;;6.00;3.40;;;;;;;27.84;49.68;101493.13;5054096;27;96707;-34
2022/06/18 16:25:32;;;;;;;10.27;2.88;;;;;;;27.76;49.83;101499.63;5055381;27;96665;-33
2022/06/18 16:28:04;;;;;;;5.88;2.65;;;;;;;27.63;49.65;101505.03;5055286;27;97872;-33
2022/06/18 16:30:31;;;;;;;7.18;2.60;;;;;;;27.63;50.12;101513.38;5053711;27;102276;-33
2022/06/18 16:33:18;;;;;;;6.53;2.92;;;;;;;27.49;49.94;101513.16;5053858;27;96858;-33
2022/06/18 16:36:11;;;;;;;7.45;4.13;;;;;;;27.42;50.13;101512.19;5054019;27;96839;-33
2022/06/18 16:38:43;;;;;;;22.45;6.60;;;;;;;27.28;49.82;101518.56;5047014;27;101185;-33
2022/06/18 16:41:11;;;;;;;;;;;;;;;27.16;49.89;101525.63;5055195;27;99383;-34
2022/06/18 16:43:37;;;;;;;8.02;2.88;;;;;;;26.87;50.43;101503.06;5055397;27;96649;-33
2022/06/18 16:46:32;;;;;;;10.52;2.95;;;;;;;26.85;50.60;101498.75;5053986;27;96768;-33
2022/06/18 16:49:00;;;;;;;3.97;2.58;;;;;;;26.78;50.39;101500.53;5053503;27;100973;-33
2022/06/18 16:52:09;;;;;;;4.50;2.65;;;;;;;26.61;50.98;101486.75;5054657;27;99394;-35
2022/06/18 16:54:40;;;;;;;11.20;3.75;;;;;;;26.45;50.91;101472.94;5054187;27;96684;-33
2022/06/18 16:57:11;;;;;;;4.68;2.55;;;;;;;26.31;51.24;101462.63;5053708;27;96674;-33
2022/06/18 16:59:37;;;;;;;6.95;2.42;;;;;;;26.26;50.99;101477.06;5053266;27;101061;-33
2022/06/18 17:02:02;;;;;;;10.35;5.00;;;;;;;26.13;51.25;101466.53;5054981;27;97335;-33
2022/06/18 17:04:28;;;;;;;10.13;3.92;;;;;;;26.13;51.02;101474.00;5058315;27;96583;-33
2022/06/18 17:06:57;;;;;;;8.63;2.50;;;;;;;26.09;51.08;101467.94;5056784;27;96770;-33
2022/06/18 17:09:23;;;;;;;6.80;2.60;;;;;;;26.03;51.73;101463.13;5056794;27;101142;-33